Time;durP1;ratioP1;P1;durP2;ratioP2;P2;SDS_P1;SDS_P2;PMS_P1;PMS_P2;Temp;Humidity;BMP_temperature;BMP_pressure;BME280_temperature;BME280_humidity;BME280_pressure;Samples;Min_cycle;Max_cycle;Signal;HPM_P1;HPM_P2
2022/12/12 00:02:06;;;;;;;28.00;14.55;;;2.40;99.90;;;;;;5053629;28;20249;-45
2022/12/12 00:04:31;;;;;;;26.35;13.95;;;2.40;99.90;;;;;;5053218;28;20260;-46
2022/12/12 00:06:57;;;;;;;24.25;13.80;;;2.40;99.90;;;;;;5052951;28;20163;-44
2022/12/12 00:09:22;;;;;;;29.85;14.27;;;2.50;99.90;;;;;;5053244;28;20642;-49
2022/12/12 00:11:48;;;;;;;28.85;14.85;;;2.40;99.90;;;;;;5053213;28;20221;-46
2022/12/12 00:14:13;;;;;;;25.17;14.13;;;2.40;99.90;;;;;;5052943;28;20538;-44
2022/12/12 00:16:39;;;;;;;23.35;13.40;;;2.50;99.90;;;;;;5053075;28;20649;-43
2022/12/12 00:19:04;;;;;;;25.30;13.48;;;2.40;99.90;;;;;;5053659;28;20646;-44
2022/12/12 00:21:30;;;;;;;22.42;12.52;;;2.40;99.90;;;;;;5053047;28;20174;-44
2022/12/12 00:23:56;;;;;;;24.63;13.05;;;2.30;99.90;;;;;;5053082;28;20277;-44
2022/12/12 00:26:28;;;;;;;25.95;12.82;;;2.20;99.90;;;;;;5052806;28;20206;-44
2022/12/12 00:28:54;;;;;;;26.48;13.15;;;2.20;99.90;;;;;;5052917;28;20193;-44
2022/12/12 00:31:20;;;;;;;20.52;11.80;;;2.30;99.90;;;;;;5053101;28;20177;-44
2022/12/12 00:33:48;;;;;;;23.75;13.20;;;2.40;99.90;;;;;;5052746;28;20163;-44
2022/12/12 00:36:16;;;;;;;22.45;12.45;;;2.40;99.90;;;;;;5052938;28;20168;-44
2022/12/12 00:38:41;;;;;;;21.73;11.60;;;2.40;99.90;;;;;;5052711;28;20439;-43
2022/12/12 00:41:07;;;;;;;27.90;11.77;;;2.50;99.90;;;;;;5052993;28;20217;-44
2022/12/12 00:43:33;;;;;;;19.52;12.02;;;2.50;99.90;;;;;;5052679;28;20166;-44
2022/12/12 00:45:59;;;;;;;21.70;12.35;;;2.50;99.90;;;;;;5051455;28;20210;-44
2022/12/12 00:48:25;;;;;;;22.77;12.05;;;2.60;99.90;;;;;;5052574;28;20216;-44
2022/12/12 00:50:50;;;;;;;20.13;12.27;;;2.50;99.90;;;;;;5052518;28;20175;-44
2022/12/12 00:53:16;;;;;;;25.25;12.30;;;2.40;99.90;;;;;;5052438;28;20182;-43
2022/12/12 00:55:42;;;;;;;22.30;12.95;;;2.50;99.90;;;;;;5052543;28;20253;-44
2022/12/12 00:58:07;;;;;;;23.13;13.68;;;2.40;99.90;;;;;;5052768;28;20175;-44
2022/12/12 01:00:34;;;;;;;22.77;13.48;;;2.50;99.90;;;;;;5052082;28;20214;-43
2022/12/12 01:03:00;;;;;;;28.35;13.75;;;2.50;99.90;;;;;;5051892;28;20601;-44
2022/12/12 01:05:26;;;;;;;22.00;11.73;;;2.50;99.90;;;;;;5052155;28;20294;-44
2022/12/12 01:07:51;;;;;;;17.70;11.48;;;2.50;99.90;;;;;;5052103;28;20213;-44
2022/12/12 01:10:17;;;;;;;22.67;12.32;;;2.40;99.90;;;;;;5051940;28;20204;-44
2022/12/12 01:12:43;;;;;;;23.08;11.55;;;2.40;99.90;;;;;;5052063;28;20177;-45
2022/12/12 01:15:09;;;;;;;21.70;12.18;;;2.30;99.90;;;;;;5052309;28;20177;-44
2022/12/12 01:17:36;;;;;;;22.27;12.05;;;2.30;99.90;;;;;;5052617;28;20171;-43
2022/12/12 01:20:04;;;;;;;21.08;11.77;;;2.40;99.90;;;;;;5052192;28;20177;-44
2022/12/12 01:22:30;;;;;;;23.33;11.95;;;2.30;99.90;;;;;;5052187;28;20162;-44
2022/12/12 01:24:56;;;;;;;23.15;12.35;;;2.30;99.90;;;;;;5051841;28;20344;-43
2022/12/12 01:27:22;;;;;;;23.83;13.65;;;2.20;99.90;;;;;;5051902;28;20178;-44
2022/12/12 01:29:48;;;;;;;24.85;13.63;;;2.20;99.90;;;;;;5051438;28;20175;-44
2022/12/12 01:32:14;;;;;;;22.20;12.30;;;2.30;99.90;;;;;;5052056;28;20288;-44
2022/12/12 01:34:39;;;;;;;23.38;14.38;;;2.40;99.90;;;;;;5052201;28;20174;-44
2022/12/12 01:37:05;;;;;;;24.50;12.80;;;2.30;99.90;;;;;;5052202;28;20174;-44
2022/12/12 01:39:30;;;;;;;26.42;14.20;;;2.40;99.90;;;;;;5051762;28;20218;-44
2022/12/12 01:41:56;;;;;;;25.58;14.00;;;2.40;99.90;;;;;;5051664;28;20171;-44
2022/12/12 01:44:45;;;;;;;24.67;12.85;;;2.40;99.90;;;;;;5051636;28;20203;-44
2022/12/12 01:47:16;;;;;;;23.85;12.18;;;2.40;99.90;;;;;;5051660;28;20213;-45
2022/12/12 01:49:54;;;;;;;22.15;13.82;;;2.40;99.90;;;;;;5051581;28;20220;-44
2022/12/12 01:52:25;;;;;;;23.67;13.52;;;2.30;99.90;;;;;;5051600;28;20170;-44
2022/12/12 01:54:57;;;;;;;25.63;14.50;;;2.30;99.90;;;;;;5051585;28;20241;-44
2022/12/12 01:57:32;;;;;;;25.52;13.57;;;2.30;99.90;;;;;;5051036;28;20183;-44
2022/12/12 02:00:00;;;;;;;21.38;12.38;;;2.30;99.90;;;;;;5051508;28;20166;-47
2022/12/12 02:02:27;;;;;;;22.55;12.15;;;2.20;99.90;;;;;;5051457;28;20778;-47
2022/12/12 02:04:53;;;;;;;22.50;12.80;;;2.30;99.90;;;;;;5051446;28;20215;-48
2022/12/12 02:07:18;;;;;;;24.45;12.20;;;2.20;99.90;;;;;;5051420;28;20177;-45
2022/12/12 02:09:46;;;;;;;21.83;11.27;;;2.20;99.90;;;;;;5051756;28;20224;-45
2022/12/12 02:12:13;;;;;;;21.55;11.07;;;2.20;99.90;;;;;;5051381;28;20159;-44
2022/12/12 02:14:42;;;;;;;21.05;10.75;;;2.30;99.90;;;;;;5051405;28;20167;-44
2022/12/12 02:17:26;;;;;;;18.23;10.90;;;2.30;99.90;;;;;;5050648;28;20681;-44
2022/12/12 02:20:03;;;;;;;19.85;11.35;;;2.30;99.90;;;;;;5051361;28;20282;-47
2022/12/12 02:22:49;;;;;;;22.27;11.30;;;2.20;99.90;;;;;;5054497;28;20170;-44
2022/12/12 02:25:51;;;;;;;19.95;11.25;;;2.30;99.90;;;;;;5055226;28;20210;-45
2022/12/12 02:28:26;;;;;;;19.27;10.73;;;2.30;99.90;;;;;;5055145;28;20170;-45
2022/12/12 02:31:10;;;;;;;19.15;10.45;;;2.40;99.90;;;;;;5055348;28;20632;-45
2022/12/12 02:34:12;;;;;;;19.08;10.77;;;2.40;99.90;;;;;;5055526;28;20163;-45
2022/12/12 02:37:09;;;;;;;22.48;10.00;;;2.50;99.90;;;;;;5053860;28;20182;-47
2022/12/12 02:39:58;;;;;;;18.90;10.75;;;2.30;99.90;;;;;;5055411;28;20167;-45
2022/12/12 02:42:26;;;;;;;21.60;10.93;;;2.20;99.90;;;;;;5054827;28;20163;-48
2022/12/12 02:45:05;;;;;;;18.65;9.93;;;2.20;99.90;;;;;;5054755;28;20206;-44
2022/12/12 02:47:38;;;;;;;18.83;10.63;;;2.10;99.90;;;;;;5054783;28;20166;-46
2022/12/12 02:50:15;;;;;;;18.75;10.45;;;2.10;99.90;;;;;;5055158;28;20175;-45
2022/12/12 02:52:45;;;;;;;19.02;10.55;;;2.00;99.90;;;;;;5054755;28;20261;-48
2022/12/12 02:55:12;;;;;;;17.75;9.70;;;2.00;99.90;;;;;;5054723;28;20167;-47
2022/12/12 02:57:40;;;;;;;20.40;11.90;;;2.10;99.90;;;;;;5054455;28;20174;-45
2022/12/12 03:00:11;;;;;;;18.80;10.05;;;2.10;99.90;;;;;;5055009;28;20182;-45
2022/12/12 03:09:30;;;;;;;21.25;10.60;;;2.00;99.90;;;;;;5054504;28;20578;-44
2022/12/12 03:12:07;;;;;;;17.73;9.93;;;1.90;99.90;;;;;;5054236;28;20200;-46
2022/12/12 03:14:49;;;;;;;20.42;9.40;;;1.90;99.90;;;;;;5054506;28;20174;-44
2022/12/12 03:17:48;;;;;;;16.73;9.90;;;1.90;99.90;;;;;;5054226;28;20167;-45
2022/12/12 03:20:19;;;;;;;16.00;9.73;;;1.90;99.90;;;;;;5054168;28;20162;-44
2022/12/12 03:22:59;;;;;;;19.15;10.38;;;1.80;99.90;;;;;;5054094;28;20178;-45
2022/12/12 03:25:49;;;;;;;18.23;9.77;;;1.80;99.90;;;;;;5054266;28;20555;-44
2022/12/12 03:28:24;;;;;;;20.20;9.80;;;1.80;99.90;;;;;;5054036;28;20690;-44
2022/12/12 03:30:54;;;;;;;17.55;9.32;;;1.70;99.90;;;;;;5054022;28;20193;-44
2022/12/12 03:33:40;;;;;;;20.25;10.32;;;1.80;99.90;;;;;;5054016;28;20210;-44
2022/12/12 03:36:13;;;;;;;16.98;9.48;;;1.80;99.90;;;;;;5054277;28;20240;-44
2022/12/12 03:38:43;;;;;;;17.13;9.30;;;1.70;99.90;;;;;;5053792;28;20182;-44
2022/12/12 03:41:17;;;;;;;20.35;10.38;;;1.80;99.90;;;;;;5054048;28;20213;-43
2022/12/12 03:43:51;;;;;;;19.45;9.93;;;1.80;99.90;;;;;;5053725;28;20569;-43
2022/12/12 03:46:21;;;;;;;16.38;9.73;;;1.80;99.90;;;;;;5053580;28;20208;-46
2022/12/12 03:49:03;;;;;;;17.13;9.23;;;1.90;99.90;;;;;;5053680;28;20163;-44
2022/12/12 03:51:31;;;;;;;16.60;10.13;;;1.90;99.90;;;;;;5053639;28;20167;-44
2022/12/12 03:54:25;;;;;;;17.30;9.88;;;1.90;99.90;;;;;;5053588;28;20575;-44
2022/12/12 03:56:56;;;;;;;20.48;9.93;;;1.80;99.90;;;;;;5053755;28;20182;-43
2022/12/12 03:59:25;;;;;;;18.23;9.75;;;1.90;99.90;;;;;;5053435;28;20197;-44
2022/12/12 04:02:29;;;;;;;18.33;10.23;;;1.80;99.90;;;;;;5053239;28;20222;-44
2022/12/12 04:05:10;;;;;;;16.85;9.02;;;1.80;99.90;;;;;;5053512;28;20602;-44
2022/12/12 04:07:41;;;;;;;18.73;9.93;;;1.90;99.90;;;;;;5053673;28;20167;-44
2022/12/12 04:13:16;;;;;;;15.98;9.18;;;1.80;99.90;;;;;;5053139;28;20173;-44
2022/12/12 04:15:55;;;;;;;19.50;9.50;;;1.90;99.90;;;;;;5053053;28;20594;-45
2022/12/12 04:18:47;;;;;;;18.90;9.52;;;1.80;99.90;;;;;;5053145;28;20722;-44
2022/12/12 04:24:44;;;;;;;17.48;9.73;;;1.70;99.90;;;;;;5052934;28;20178;-44
2022/12/12 04:27:12;;;;;;;15.32;8.35;;;1.70;99.90;;;;;;5052935;28;20202;-45
2022/12/12 04:30:02;;;;;;;16.25;8.88;;;1.70;99.90;;;;;;5052837;28;20515;-44
2022/12/12 04:32:55;;;;;;;16.27;8.40;;;1.70;99.90;;;;;;5052829;28;20232;-44
2022/12/12 04:35:28;;;;;;;15.20;8.48;;;1.60;99.90;;;;;;5052631;28;20177;-44
2022/12/12 04:37:56;;;;;;;15.88;8.88;;;1.50;99.90;;;;;;5052679;28;20227;-44
2022/12/12 04:40:27;;;;;;;17.23;9.27;;;1.50;99.90;;;;;;5052587;28;20264;-44
2022/12/12 04:43:00;;;;;;;13.50;7.97;;;1.50;99.90;;;;;;5052589;28;20665;-45
2022/12/12 04:45:37;;;;;;;15.60;9.30;;;1.40;99.90;;;;;;5051910;28;20679;-43
2022/12/12 04:48:06;;;;;;;16.83;9.35;;;1.50;99.90;;;;;;5052963;28;20219;-44
2022/12/12 04:50:33;;;;;;;17.33;9.90;;;1.50;99.90;;;;;;5052408;28;20212;-44
2022/12/12 04:53:03;;;;;;;13.45;8.43;;;1.60;99.90;;;;;;5052389;28;20155;-44
2022/12/12 04:55:33;;;;;;;16.65;8.48;;;1.60;99.90;;;;;;5052367;28;20174;-44
2022/12/12 04:58:01;;;;;;;15.82;7.70;;;1.60;99.90;;;;;;5052312;28;20205;-44
2022/12/12 05:00:33;;;;;;;15.95;8.48;;;1.60;99.90;;;;;;5052176;28;20272;-48
2022/12/12 05:03:17;;;;;;;14.93;8.65;;;1.60;99.90;;;;;;5052207;28;20166;-45
2022/12/12 05:05:52;;;;;;;15.88;8.48;;;1.70;99.90;;;;;;5052076;28;20622;-44
2022/12/12 05:08:26;;;;;;;16.35;8.48;;;1.70;99.90;;;;;;5052127;28;20161;-44
2022/12/12 05:10:58;;;;;;;14.13;8.80;;;1.70;99.90;;;;;;5052128;28;20249;-44
2022/12/12 05:13:34;;;;;;;15.38;8.57;;;1.60;99.90;;;;;;5052023;28;20638;-44
2022/12/12 05:16:02;;;;;;;15.40;7.88;;;1.60;99.90;;;;;;5051920;28;20166;-43
2022/12/12 05:18:30;;;;;;;18.30;8.13;;;1.60;99.90;;;;;;5051925;28;20201;-44
2022/12/12 05:20:55;;;;;;;13.88;8.02;;;1.70;99.90;;;;;;5052206;28;20174;-45
2022/12/12 05:23:21;;;;;;;17.85;8.23;;;1.60;99.90;;;;;;5052000;28;20170;-44
2022/12/12 05:25:46;;;;;;;16.83;8.63;;;1.70;99.90;;;;;;5051879;28;20209;-44
2022/12/12 05:28:12;;;;;;;15.98;8.50;;;1.60;99.90;;;;;;5051824;28;20172;-43
2022/12/12 05:30:38;;;;;;;20.55;9.02;;;1.60;99.90;;;;;;5051827;28;20622;-44
2022/12/12 05:33:03;;;;;;;18.08;8.80;;;1.70;99.90;;;;;;5052240;28;20198;-44
2022/12/12 05:35:29;;;;;;;14.68;7.93;;;1.60;99.90;;;;;;5052003;28;20175;-45
2022/12/12 05:37:55;;;;;;;15.80;8.40;;;1.70;99.90;;;;;;5051650;28;20240;-45
2022/12/12 05:40:21;;;;;;;16.60;7.55;;;1.70;99.90;;;;;;5051762;28;20257;-44
2022/12/12 05:42:47;;;;;;;15.70;8.02;;;1.60;99.90;;;;;;5051670;28;20209;-47
2022/12/12 05:45:13;;;;;;;13.85;7.53;;;1.70;99.90;;;;;;5051895;28;20206;-47
2022/12/12 05:47:38;;;;;;;11.00;6.93;;;1.60;99.90;;;;;;5051389;28;20174;-45
2022/12/12 05:50:04;;;;;;;14.18;6.68;;;1.50;99.90;;;;;;5052077;28;20174;-48
2022/12/12 05:52:30;;;;;;;14.50;8.25;;;1.40;99.90;;;;;;5051645;28;20162;-44
2022/12/12 05:54:55;;;;;;;14.93;7.05;;;1.40;99.90;;;;;;5051516;28;20171;-46
2022/12/12 05:57:21;;;;;;;16.35;8.18;;;1.50;99.90;;;;;;5054647;28;20257;-44
2022/12/12 05:59:47;;;;;;;14.82;7.68;;;1.50;99.90;;;;;;5055703;28;20174;-43
2022/12/12 06:02:14;;;;;;;15.38;7.68;;;1.60;99.90;;;;;;5055521;28;20245;-44
2022/12/12 06:04:40;;;;;;;12.80;6.93;;;1.70;99.90;;;;;;5055467;28;20202;-44
2022/12/12 06:07:06;;;;;;;12.20;7.47;;;1.60;99.90;;;;;;5055987;28;20174;-44
2022/12/12 06:09:31;;;;;;;14.10;7.50;;;1.50;99.90;;;;;;5055486;28;20159;-44
2022/12/12 06:11:57;;;;;;;14.25;8.40;;;1.50;99.90;;;;;;5055392;28;20167;-45
2022/12/12 06:14:24;;;;;;;14.18;8.05;;;1.40;99.90;;;;;;5055267;28;20173;-44
2022/12/12 06:16:49;;;;;;;15.35;7.55;;;1.40;99.90;;;;;;5055360;28;20271;-45
2022/12/12 06:19:20;;;;;;;14.20;7.78;;;1.40;99.90;;;;;;5055367;28;20654;-44
2022/12/12 06:21:45;;;;;;;15.30;6.80;;;1.40;99.90;;;;;;5055347;28;20647;-44
2022/12/12 06:24:11;;;;;;;13.95;7.25;;;1.30;99.90;;;;;;5055214;28;20175;-44
2022/12/12 06:26:36;;;;;;;12.82;7.32;;;1.20;99.90;;;;;;5055733;28;20264;-44
2022/12/12 06:29:02;;;;;;;14.63;7.57;;;1.20;99.90;;;;;;5055371;28;20530;-45
2022/12/12 06:31:28;;;;;;;16.30;7.20;;;1.30;99.90;;;;;;5054982;28;20718;-46
2022/12/12 06:33:53;;;;;;;12.00;6.95;;;1.30;99.90;;;;;;5054888;28;20167;-45
2022/12/12 06:36:23;;;;;;;14.13;7.28;;;1.30;99.90;;;;;;5054988;28;20177;-44
2022/12/12 06:38:56;;;;;;;13.23;7.05;;;1.20;99.90;;;;;;5055111;28;20179;-47
2022/12/12 06:41:24;;;;;;;15.85;8.25;;;1.20;99.90;;;;;;5055111;28;20520;-45
2022/12/12 06:43:50;;;;;;;12.32;6.97;;;1.20;99.90;;;;;;5054696;28;20197;-45
2022/12/12 06:46:18;;;;;;;15.07;7.28;;;1.20;99.90;;;;;;5054646;28;20252;-45
2022/12/12 06:48:45;;;;;;;15.20;7.65;;;1.30;99.90;;;;;;5054731;28;20254;-45
2022/12/12 06:51:13;;;;;;;13.30;7.35;;;1.20;99.90;;;;;;5054685;28;20233;-44
2022/12/12 06:53:39;;;;;;;17.30;8.05;;;1.20;99.90;;;;;;5054606;28;20525;-44
2022/12/12 06:56:14;;;;;;;15.25;7.00;;;1.20;99.90;;;;;;5054990;28;20200;-44
2022/12/12 06:58:40;;;;;;;15.85;7.55;;;1.20;99.90;;;;;;5054905;28;20170;-43
2022/12/12 07:01:06;;;;;;;16.10;7.63;;;1.30;99.90;;;;;;5054765;28;20562;-44
2022/12/12 07:03:32;;;;;;;13.93;7.95;;;1.20;99.90;;;;;;5054945;28;20174;-46
2022/12/12 07:05:58;;;;;;;13.63;7.43;;;1.10;99.90;;;;;;5054406;28;20224;-44
2022/12/12 07:08:25;;;;;;;13.38;7.35;;;1.20;99.90;;;;;;5053984;28;20182;-44
2022/12/12 07:10:50;;;;;;;13.77;7.13;;;1.20;99.90;;;;;;5054659;28;20501;-44
2022/12/12 07:13:16;;;;;;;13.52;7.45;;;1.10;99.90;;;;;;5054341;28;20167;-44
2022/12/12 07:15:47;;;;;;;16.38;8.57;;;1.20;99.90;;;;;;5054201;28;20175;-44
2022/12/12 07:18:14;;;;;;;16.60;8.02;;;1.20;99.90;;;;;;5054278;28;20229;-44
2022/12/12 07:20:41;;;;;;;25.33;11.85;;;1.20;99.90;;;;;;5054164;28;20166;-44
2022/12/12 07:23:07;;;;;;;26.05;12.93;;;1.10;99.90;;;;;;5054275;28;20162;-43
2022/12/12 07:25:36;;;;;;;22.42;10.82;;;1.00;99.90;;;;;;5054628;28;20300;-44
2022/12/12 07:28:02;;;;;;;22.17;9.98;;;1.00;99.90;;;;;;5054358;28;20171;-44
2022/12/12 07:30:27;;;;;;;11.95;6.90;;;1.00;99.90;;;;;;5053975;28;20181;-44
2022/12/12 07:32:53;;;;;;;16.00;7.43;;;1.00;99.90;;;;;;5053906;28;20170;-44
2022/12/12 07:35:18;;;;;;;12.77;6.68;;;1.00;99.90;;;;;;5053868;28;20228;-44
2022/12/12 07:37:44;;;;;;;12.63;7.10;;;1.00;99.90;;;;;;5053801;28;20527;-44
2022/12/12 07:40:09;;;;;;;13.98;7.25;;;0.90;99.90;;;;;;5053776;28;20552;-44
2022/12/12 07:42:35;;;;;;;10.50;7.30;;;0.90;99.90;;;;;;5054119;28;20170;-44
2022/12/12 07:45:00;;;;;;;15.45;6.82;;;0.90;99.90;;;;;;5053608;28;20377;-44
2022/12/12 07:47:26;;;;;;;12.15;7.25;;;1.00;99.90;;;;;;5053676;28;20178;-44
2022/12/12 07:49:53;;;;;;;11.77;7.10;;;1.00;99.90;;;;;;5053641;28;20171;-44
2022/12/12 07:52:19;;;;;;;12.60;7.13;;;1.00;99.90;;;;;;5053801;28;20175;-44
2022/12/12 07:54:44;;;;;;;13.60;6.93;;;1.00;99.90;;;;;;5053561;28;20200;-44
2022/12/12 07:57:10;;;;;;;13.65;7.78;;;1.00;99.90;;;;;;5053487;28;20194;-44
2022/12/12 07:59:36;;;;;;;12.90;6.38;;;1.10;99.90;;;;;;5053781;28;20170;-44
2022/12/12 08:02:01;;;;;;;13.70;6.65;;;1.10;99.90;;;;;;5053612;28;20218;-44
2022/12/12 08:04:27;;;;;;;11.23;7.20;;;1.20;99.90;;;;;;5053250;28;20183;-44
2022/12/12 08:06:52;;;;;;;13.95;7.60;;;1.10;99.90;;;;;;5053213;28;20216;-44
2022/12/12 08:09:18;;;;;;;13.95;6.75;;;1.00;99.90;;;;;;5053569;28;20171;-44
2022/12/12 08:11:44;;;;;;;14.55;7.05;;;1.10;99.90;;;;;;5053144;28;20167;-44
2022/12/12 08:14:10;;;;;;;14.27;8.15;;;1.20;99.90;;;;;;5053127;28;20220;-44
2022/12/12 08:16:35;;;;;;;15.98;8.93;;;1.20;99.90;;;;;;5053712;28;20209;-44
2022/12/12 08:19:02;;;;;;;16.15;7.38;;;1.50;99.90;;;;;;5052705;28;20170;-44
2022/12/12 08:21:27;;;;;;;15.77;8.55;;;1.20;99.90;;;;;;5053038;28;20159;-44
2022/12/12 08:23:57;;;;;;;14.18;7.80;;;1.20;99.90;;;;;;5052922;28;20237;-44
2022/12/12 08:26:23;;;;;;;13.88;7.63;;;1.20;99.90;;;;;;5052850;28;20264;-45
2022/12/12 08:28:48;;;;;;;19.35;8.00;;;1.20;99.90;;;;;;5052944;28;20159;-44
2022/12/12 08:31:16;;;;;;;16.58;6.97;;;1.30;99.90;;;;;;5053062;28;20285;-44
2022/12/12 08:33:41;;;;;;;12.65;6.57;;;1.30;99.90;;;;;;5052872;28;20701;-44
2022/12/12 08:36:19;;;;;;;12.73;6.85;;;1.30;99.90;;;;;;5052737;28;20212;-45
2022/12/12 08:38:45;;;;;;;17.30;6.85;;;1.30;99.90;;;;;;5053011;28;20262;-44
2022/12/12 08:41:12;;;;;;;14.10;7.57;;;1.30;99.90;;;;;;5049632;28;20304;-43
2022/12/12 08:43:38;;;;;;;14.30;7.13;;;1.30;99.90;;;;;;5050579;28;20205;-43
2022/12/12 08:46:05;;;;;;;18.13;7.47;;;1.20;99.90;;;;;;5051364;28;20568;-44
2022/12/12 08:48:31;;;;;;;13.20;7.00;;;1.20;99.90;;;;;;5051047;28;20174;-44
2022/12/12 08:50:57;;;;;;;12.05;6.57;;;1.30;99.90;;;;;;5050737;28;20171;-43
2022/12/12 08:53:23;;;;;;;20.15;6.85;;;1.20;99.90;;;;;;5049436;28;20183;-44
2022/12/12 08:55:49;;;;;;;14.13;7.28;;;1.20;99.90;;;;;;5050643;28;20166;-42
2022/12/12 08:58:15;;;;;;;12.35;6.78;;;1.20;99.90;;;;;;5050621;28;20507;-42
2022/12/12 09:00:40;;;;;;;14.45;7.35;;;1.30;99.90;;;;;;5049354;28;20226;-42
2022/12/12 09:03:06;;;;;;;11.65;7.07;;;1.20;99.90;;;;;;5050499;28;20175;-43
2022/12/12 09:05:33;;;;;;;15.43;7.55;;;1.30;99.90;;;;;;5051057;28;20317;-44
2022/12/12 09:07:59;;;;;;;20.55;8.95;;;1.40;99.90;;;;;;5050202;28;20170;-44
2022/12/12 09:10:28;;;;;;;13.18;7.55;;;1.30;99.90;;;;;;5050112;28;20217;-43
2022/12/12 09:12:54;;;;;;;12.27;6.75;;;1.30;99.90;;;;;;5050264;28;20232;-43
2022/12/12 09:15:20;;;;;;;12.85;6.47;;;1.40;99.90;;;;;;5049428;28;20182;-47
2022/12/12 09:17:45;;;;;;;18.50;6.93;;;1.30;99.90;;;;;;5050372;28;20532;-45
2022/12/12 09:20:11;;;;;;;14.13;8.15;;;1.30;99.90;;;;;;5050123;28;20696;-45
2022/12/12 09:22:37;;;;;;;12.25;7.70;;;1.20;99.90;;;;;;5050206;28;20241;-45
2022/12/12 09:25:04;;;;;;;15.02;7.97;;;1.10;99.90;;;;;;5050473;28;20373;-45
2022/12/12 09:27:30;;;;;;;19.55;10.05;;;1.10;99.90;;;;;;5050010;28;20692;-44
2022/12/12 09:29:56;;;;;;;13.13;8.00;;;1.20;99.90;;;;;;5050013;28;20199;-45
2022/12/12 09:32:21;;;;;;;17.27;8.70;;;1.10;99.90;;;;;;5049952;28;20175;-44
2022/12/12 09:34:47;;;;;;;16.50;8.57;;;1.10;99.90;;;;;;5048927;28;20273;-44
2022/12/12 09:37:13;;;;;;;12.35;6.72;;;1.10;99.90;;;;;;5050111;28;20225;-44
2022/12/12 09:39:39;;;;;;;17.38;8.20;;;1.10;99.90;;;;;;5050058;28;20675;-43
2022/12/12 09:42:19;;;;;;;15.13;8.45;;;1.20;99.90;;;;;;5050082;28;20257;-44
2022/12/12 09:44:45;;;;;;;14.40;7.68;;;1.30;99.90;;;;;;5050143;28;20206;-44
2022/12/12 09:47:17;;;;;;;18.70;8.25;;;1.30;99.90;;;;;;5049848;28;20705;-43
2022/12/12 09:49:47;;;;;;;15.60;7.88;;;1.30;99.90;;;;;;5049735;28;20618;-44
2022/12/12 09:52:16;;;;;;;21.40;9.43;;;1.20;99.90;;;;;;5049874;28;20200;-42
2022/12/12 09:54:42;;;;;;;17.50;7.97;;;1.20;99.90;;;;;;5049780;28;20202;-43
2022/12/12 09:57:35;;;;;;;17.77;7.72;;;1.30;99.90;;;;;;5049750;28;20169;-45
2022/12/12 10:00:13;;;;;;;16.55;7.65;;;1.30;99.90;;;;;;5049993;28;20197;-42
2022/12/12 10:02:50;;;;;;;15.30;8.50;;;1.20;99.90;;;;;;5049832;28;20528;-43
2022/12/12 10:05:42;;;;;;;16.17;8.60;;;1.30;99.90;;;;;;5050071;28;20206;-42
2022/12/12 10:08:17;;;;;;;15.75;7.90;;;1.40;99.90;;;;;;5049466;28;20170;-44
2022/12/12 10:10:46;;;;;;;15.60;8.00;;;1.40;99.90;;;;;;5049744;28;20174;-42
2022/12/12 10:13:20;;;;;;;18.90;7.85;;;1.40;99.90;;;;;;5049519;28;20174;-42
2022/12/12 10:15:50;;;;;;;16.00;8.18;;;1.50;99.90;;;;;;5049495;28;20166;-43
2022/12/12 10:18:21;;;;;;;19.52;8.95;;;1.50;99.90;;;;;;5049522;28;20163;-42
2022/12/12 10:20:50;;;;;;;13.35;8.07;;;1.50;99.90;;;;;;5049517;28;20171;-43
2022/12/12 10:23:45;;;;;;;15.98;8.02;;;1.50;99.90;;;;;;5049444;28;20173;-42
2022/12/12 10:26:22;;;;;;;16.92;7.88;;;1.50;99.90;;;;;;5049924;28;20206;-42
2022/12/12 10:28:52;;;;;;;19.80;8.88;;;1.50;99.90;;;;;;5049490;28;20297;-40
2022/12/12 10:31:23;;;;;;;15.32;8.32;;;1.50;99.90;;;;;;5049668;28;20175;-44
2022/12/12 10:34:21;;;;;;;16.42;7.80;;;1.60;99.90;;;;;;5049724;28;20163;-43
2022/12/12 10:37:10;;;;;;;14.60;8.13;;;1.60;99.90;;;;;;5049477;28;20246;-43
2022/12/12 10:39:54;;;;;;;14.07;7.40;;;1.60;99.90;;;;;;5049292;28;20166;-43
2022/12/12 10:42:54;;;;;;;15.35;9.63;;;1.60;99.90;;;;;;5050640;28;20190;-45
2022/12/12 10:45:35;;;;;;;17.50;8.13;;;1.60;99.90;;;;;;5041210;28;20222;-44
2022/12/12 10:48:00;;;;;;;18.58;8.63;;;1.50;99.90;;;;;;5053633;28;20165;-44
2022/12/12 10:50:33;;;;;;;13.20;7.07;;;1.50;99.90;;;;;;5053297;28;20170;-44
2022/12/12 10:53:00;;;;;;;19.90;9.52;;;1.50;99.90;;;;;;5053128;28;20166;-44
2022/12/12 10:55:53;;;;;;;24.98;13.98;;;1.50;99.90;;;;;;5053175;28;20637;-43
2022/12/12 10:58:23;;;;;;;36.72;21.15;;;1.60;99.90;;;;;;5053048;28;20177;-46
2022/12/12 11:00:49;;;;;;;20.20;10.00;;;1.60;99.90;;;;;;5052904;28;20272;-44
2022/12/12 11:03:43;;;;;;;24.77;13.05;;;1.60;99.90;;;;;;5052941;28;20568;-44
2022/12/12 11:06:16;;;;;;;20.05;10.88;;;1.60;99.90;;;;;;5052772;28;20202;-43
2022/12/12 11:09:12;;;;;;;18.17;10.40;;;1.60;99.90;;;;;;5052881;28;20158;-45
2022/12/12 11:11:37;;;;;;;19.50;9.85;;;1.60;99.90;;;;;;5048830;28;20191;-52
2022/12/12 11:14:21;;;;;;;16.58;10.50;;;1.60;99.90;;;;;;5053004;28;20169;-46
2022/12/12 11:16:46;;;;;;;20.38;9.23;;;1.70;99.90;;;;;;5052463;28;20243;-43
2022/12/12 11:19:18;;;;;;;30.40;14.55;;;1.70;99.90;;;;;;5052254;28;20257;-44
2022/12/12 11:21:44;;;;;;;36.65;16.23;;;1.70;99.90;;;;;;5052403;28;20182;-45
2022/12/12 11:24:23;;;;;;;39.60;19.80;;;1.70;99.90;;;;;;5052565;28;20167;-45
2022/12/12 11:27:03;;;;;;;35.25;18.90;;;1.60;99.90;;;;;;5052482;28;20210;-45
2022/12/12 11:29:45;;;;;;;26.67;17.48;;;1.70;99.90;;;;;;5052182;28;20162;-44
2022/12/12 11:32:13;;;;;;;52.85;30.20;;;1.60;99.90;;;;;;5052533;28;20179;-44
2022/12/12 11:34:42;;;;;;;27.23;17.13;;;1.60;99.90;;;;;;5052295;28;20250;-44
2022/12/12 11:37:17;;;;;;;20.77;12.48;;;1.70;99.90;;;;;;5052283;28;20170;-44
2022/12/12 11:39:45;;;;;;;18.15;10.40;;;1.70;99.90;;;;;;5052114;28;20158;-44
2022/12/12 11:42:39;;;;;;;19.42;8.88;;;1.70;99.90;;;;;;5052117;28;20170;-44
2022/12/12 11:45:08;;;;;;;19.95;8.90;;;1.80;99.90;;;;;;5050990;28;20689;-46
2022/12/12 11:47:45;;;;;;;18.80;9.20;;;1.80;99.90;;;;;;5052564;28;20175;-43
2022/12/12 11:50:22;;;;;;;41.58;20.88;;;1.70;99.90;;;;;;5051989;28;20573;-43
2022/12/12 11:52:51;;;;;;;49.33;26.90;;;1.80;99.90;;;;;;5051924;28;20190;-43
2022/12/12 11:55:31;;;;;;;27.42;16.42;;;1.80;99.90;;;;;;5050934;28;20194;-42
2022/12/12 11:58:06;;;;;;;26.05;13.63;;;1.90;99.90;;;;;;5051721;28;20258;-42
2022/12/12 12:00:53;;;;;;;31.85;15.35;;;1.90;99.90;;;;;;5052018;28;20697;-45
2022/12/12 12:03:30;;;;;;;87.18;32.63;;;2.00;99.90;;;;;;5051813;28;20478;-43
2022/12/12 12:06:40;;;;;;;49.90;20.77;;;2.10;99.90;;;;;;5050437;28;20206;-43
2022/12/12 12:09:35;;;;;;;27.33;12.25;;;2.10;99.90;;;;;;5051389;28;20622;-43
2022/12/12 12:12:00;;;;;;;92.10;34.63;;;2.10;99.90;;;;;;5052036;28;20228;-46
2022/12/12 12:14:41;;;;;;;49.58;24.10;;;2.00;99.90;;;;;;5051498;28;20166;-43
2022/12/12 12:17:36;;;;;;;48.00;23.38;;;2.00;99.90;;;;;;5051411;28;20174;-47
2022/12/12 12:20:19;;;;;;;34.67;17.35;;;2.00;99.90;;;;;;5051804;28;20177;-43
2022/12/12 12:23:03;;;;;;;32.45;13.90;;;2.00;99.90;;;;;;5051290;28;20249;-43
2022/12/12 12:26:12;;;;;;;34.33;15.63;;;2.10;99.90;;;;;;5051310;28;20209;-43
2022/12/12 12:29:08;;;;;;;24.10;12.55;;;2.00;99.90;;;;;;5009141;28;20176;-43
2022/12/12 12:31:34;;;;;;;20.55;9.93;;;2.10;99.90;;;;;;5009847;28;20528;-43
2022/12/12 12:34:18;;;;;;;18.40;9.32;;;2.00;99.90;;;;;;5037410;28;20179;-43
2022/12/12 12:37:23;;;;;;;20.70;9.68;;;2.10;99.90;;;;;;5051180;28;20159;-43
2022/12/12 12:40:06;;;;;;;23.17;11.27;;;2.10;99.90;;;;;;5046187;28;20566;-43
2022/12/12 12:42:35;;;;;;;20.30;12.02;;;2.10;99.90;;;;;;5051455;28;20163;-44
2022/12/12 12:45:44;;;;;;;22.23;10.52;;;2.00;99.90;;;;;;5051072;28;20202;-44
2022/12/12 12:48:32;;;;;;;25.30;10.15;;;2.10;99.90;;;;;;5049388;28;20182;-46
2022/12/12 12:51:23;;;;;;;18.92;9.60;;;2.10;99.90;;;;;;5050750;28;20174;-45
2022/12/12 12:54:18;;;;;;;17.75;8.45;;;2.10;99.90;;;;;;5050757;28;20252;-46
2022/12/12 12:57:06;;;;;;;17.95;8.48;;;2.10;99.90;;;;;;5050066;28;20626;-45
2022/12/12 12:59:47;;;;;;;19.58;10.05;;;2.10;99.90;;;;;;5039453;28;20651;-44
2022/12/12 13:02:46;;;;;;;19.42;9.70;;;2.10;99.90;;;;;;5048702;28;20266;-44
2022/12/12 13:05:24;;;;;;;18.55;8.70;;;2.00;99.90;;;;;;5047343;28;20202;-45
2022/12/12 13:08:23;;;;;;;20.48;9.70;;;2.10;99.90;;;;;;5049655;28;20166;-45
2022/12/12 13:10:56;;;;;;;22.70;8.52;;;2.10;99.90;;;;;;5049790;28;20162;-43
2022/12/12 13:13:29;;;;;;;17.70;9.35;;;2.10;99.90;;;;;;5049703;28;20656;-44
2022/12/12 13:16:00;;;;;;;19.67;8.65;;;2.10;99.90;;;;;;5048767;28;20174;-44
2022/12/12 13:18:27;;;;;;;18.83;8.98;;;2.00;99.90;;;;;;5048396;28;20167;-44
2022/12/12 13:21:31;;;;;;;24.70;10.25;;;2.00;99.90;;;;;;5048353;28;20178;-45
2022/12/12 13:24:17;;;;;;;18.17;9.27;;;2.00;99.90;;;;;;5048404;28;20174;-45